sensor_id;sensor_type;location;lat;lon;timestamp;P1;durP1;ratioP1;P2;durP2;ratioP2
44272;SDS011;29964;17.182;-96.766;2023-04-03T00:00:07;2.28;;;1.60;;
44272;SDS011;29964;17.182;-96.766;2023-04-03T00:02:35;4.95;;;1.83;;
44272;SDS011;29964;17.182;-96.766;2023-04-03T00:05:02;1.95;;;1.45;;
44272;SDS011;29964;17.182;-96.766;2023-04-03T00:07:30;4.80;;;2.38;;
44272;SDS011;29964;17.182;-96.766;2023-04-03T00:09:57;2.67;;;1.77;;
44272;SDS011;29964;17.182;-96.766;2023-04-03T00:12:24;16.10;;;3.13;;
44272;SDS011;29964;17.182;-96.766;2023-04-03T00:14:51;2.92;;;1.92;;
44272;SDS011;29964;17.182;-96.766;2023-04-03T00:17:17;2.63;;;1.85;;
44272;SDS011;29964;17.182;-96.766;2023-04-03T00:19:44;3.53;;;2.08;;
44272;SDS011;29964;17.182;-96.766;2023-04-03T00:22:14;3.58;;;1.92;;
44272;SDS011;29964;17.182;-96.766;2023-04-03T00:24:41;4.13;;;2.03;;
44272;SDS011;29964;17.182;-96.766;2023-04-03T00:27:09;3.53;;;1.83;;
44272;SDS011;29964;17.182;-96.766;2023-04-03T00:29:36;2.92;;;1.70;;
44272;SDS011;29964;17.182;-96.766;2023-04-03T00:32:03;2.92;;;1.67;;
44272;SDS011;29964;17.182;-96.766;2023-04-03T00:34:32;3.53;;;1.98;;
44272;SDS011;29964;17.182;-96.766;2023-04-03T00:36:59;3.25;;;2.00;;
44272;SDS011;29964;17.182;-96.766;2023-04-03T00:39:26;10.93;;;1.85;;
44272;SDS011;29964;17.182;-96.766;2023-04-03T00:41:53;2.97;;;1.88;;
44272;SDS011;29964;17.182;-96.766;2023-04-03T00:44:21;10.68;;;1.55;;
44272;SDS011;29964;17.182;-96.766;2023-04-03T00:46:49;4.38;;;2.40;;
44272;SDS011;29964;17.182;-96.766;2023-04-03T00:49:16;5.03;;;2.47;;
44272;SDS011;29964;17.182;-96.766;2023-04-03T00:51:43;3.30;;;2.10;;
44272;SDS011;29964;17.182;-96.766;2023-04-03T00:54:10;3.35;;;2.20;;
44272;SDS011;29964;17.182;-96.766;2023-04-03T00:56:36;2.15;;;1.60;;
44272;SDS011;29964;17.182;-96.766;2023-04-03T00:59:04;5.90;;;2.30;;
44272;SDS011;29964;17.182;-96.766;2023-04-03T01:01:32;3.35;;;2.10;;
44272;SDS011;29964;17.182;-96.766;2023-04-03T01:03:59;8.65;;;2.42;;
44272;SDS011;29964;17.182;-96.766;2023-04-03T01:06:29;6.60;;;2.97;;
44272;SDS011;29964;17.182;-96.766;2023-04-03T01:08:57;4.70;;;2.30;;
44272;SDS011;29964;17.182;-96.766;2023-04-03T01:11:24;5.55;;;2.67;;
44272;SDS011;29964;17.182;-96.766;2023-04-03T01:13:51;4.45;;;2.33;;
44272;SDS011;29964;17.182;-96.766;2023-04-03T01:16:18;9.23;;;2.80;;
44272;SDS011;29964;17.182;-96.766;2023-04-03T01:18:47;5.38;;;3.20;;
44272;SDS011;29964;17.182;-96.766;2023-04-03T01:24:04;5.88;;;2.72;;
44272;SDS011;29964;17.182;-96.766;2023-04-03T01:26:33;2.47;;;1.75;;
44272;SDS011;29964;17.182;-96.766;2023-04-03T01:29:01;3.88;;;1.58;;
44272;SDS011;29964;17.182;-96.766;2023-04-03T01:34:12;3.90;;;2.13;;
44272;SDS011;29964;17.182;-96.766;2023-04-03T01:36:40;7.95;;;2.20;;
44272;SDS011;29964;17.182;-96.766;2023-04-03T01:39:06;6.13;;;2.55;;
44272;SDS011;29964;17.182;-96.766;2023-04-03T01:41:33;4.55;;;2.38;;
44272;SDS011;29964;17.182;-96.766;2023-04-03T01:44:00;3.50;;;2.55;;
44272;SDS011;29964;17.182;-96.766;2023-04-03T01:46:31;5.60;;;2.08;;
44272;SDS011;29964;17.182;-96.766;2023-04-03T01:49:00;1.92;;;1.45;;
44272;SDS011;29964;17.182;-96.766;2023-04-03T01:51:28;9.00;;;2.03;;
44272;SDS011;29964;17.182;-96.766;2023-04-03T01:54:05;7.50;;;2.20;;
44272;SDS011;29964;17.182;-96.766;2023-04-03T01:56:35;5.17;;;1.83;;
44272;SDS011;29964;17.182;-96.766;2023-04-03T01:59:06;5.50;;;2.70;;
44272;SDS011;29964;17.182;-96.766;2023-04-03T02:01:35;5.00;;;2.77;;
44272;SDS011;29964;17.182;-96.766;2023-04-03T02:04:02;3.17;;;2.27;;
44272;SDS011;29964;17.182;-96.766;2023-04-03T02:06:29;2.90;;;2.00;;
44272;SDS011;29964;17.182;-96.766;2023-04-03T02:08:55;3.53;;;1.90;;
44272;SDS011;29964;17.182;-96.766;2023-04-03T02:11:22;4.63;;;2.40;;
44272;SDS011;29964;17.182;-96.766;2023-04-03T02:13:49;3.07;;;2.10;;
44272;SDS011;29964;17.182;-96.766;2023-04-03T02:16:16;5.17;;;2.23;;
44272;SDS011;29964;17.182;-96.766;2023-04-03T02:18:42;3.67;;;2.07;;
44272;SDS011;29964;17.182;-96.766;2023-04-03T02:21:09;3.87;;;2.67;;
44272;SDS011;29964;17.182;-96.766;2023-04-03T02:23:36;13.57;;;2.70;;
44272;SDS011;29964;17.182;-96.766;2023-04-03T02:26:12;3.33;;;2.30;;
44272;SDS011;29964;17.182;-96.766;2023-04-03T02:28:39;3.83;;;2.17;;
44272;SDS011;29964;17.182;-96.766;2023-04-03T02:31:07;3.83;;;2.60;;
44272;SDS011;29964;17.182;-96.766;2023-04-03T02:33:34;1.77;;;1.30;;
44272;SDS011;29964;17.182;-96.766;2023-04-03T02:36:04;3.33;;;1.80;;
44272;SDS011;29964;17.182;-96.766;2023-04-03T02:38:31;1.17;;;0.93;;
44272;SDS011;29964;17.182;-96.766;2023-04-03T02:41:02;1.93;;;1.40;;
44272;SDS011;29964;17.182;-96.766;2023-04-03T02:43:29;3.93;;;1.60;;
44272;SDS011;29964;17.182;-96.766;2023-04-03T02:45:56;3.10;;;2.03;;
44272;SDS011;29964;17.182;-96.766;2023-04-03T02:48:23;2.80;;;1.83;;
44272;SDS011;29964;17.182;-96.766;2023-04-03T02:50:50;2.07;;;1.60;;
44272;SDS011;29964;17.182;-96.766;2023-04-03T02:53:16;3.00;;;1.77;;
44272;SDS011;29964;17.182;-96.766;2023-04-03T02:55:45;4.33;;;2.67;;
44272;SDS011;29964;17.182;-96.766;2023-04-03T02:58:14;4.53;;;2.50;;
44272;SDS011;29964;17.182;-96.766;2023-04-03T03:00:40;7.47;;;2.33;;
44272;SDS011;29964;17.182;-96.766;2023-04-03T03:03:07;6.47;;;3.00;;
44272;SDS011;29964;17.182;-96.766;2023-04-03T03:05:34;4.07;;;2.07;;
44272;SDS011;29964;17.182;-96.766;2023-04-03T03:08:02;3.43;;;1.70;;
44272;SDS011;29964;17.182;-96.766;2023-04-03T03:10:29;8.27;;;2.90;;
44272;SDS011;29964;17.182;-96.766;2023-04-03T03:12:56;2.90;;;1.67;;
44272;SDS011;29964;17.182;-96.766;2023-04-03T03:15:23;2.77;;;1.97;;
44272;SDS011;29964;17.182;-96.766;2023-04-03T03:17:49;4.13;;;2.33;;
44272;SDS011;29964;17.182;-96.766;2023-04-03T03:20:16;2.57;;;1.77;;
44272;SDS011;29964;17.182;-96.766;2023-04-03T03:22:43;3.00;;;2.07;;
44272;SDS011;29964;17.182;-96.766;2023-04-03T03:25:10;3.07;;;1.67;;
44272;SDS011;29964;17.182;-96.766;2023-04-03T03:27:36;8.50;;;1.80;;
44272;SDS011;29964;17.182;-96.766;2023-04-03T03:30:04;4.13;;;1.80;;
44272;SDS011;29964;17.182;-96.766;2023-04-03T03:32:32;4.93;;;1.43;;
44272;SDS011;29964;17.182;-96.766;2023-04-03T03:34:59;3.10;;;2.10;;
44272;SDS011;29964;17.182;-96.766;2023-04-03T03:37:29;3.03;;;1.47;;
44272;SDS011;29964;17.182;-96.766;2023-04-03T03:39:56;3.77;;;1.80;;
44272;SDS011;29964;17.182;-96.766;2023-04-03T03:42:23;3.07;;;2.23;;
44272;SDS011;29964;17.182;-96.766;2023-04-03T03:44:50;1.97;;;1.70;;
44272;SDS011;29964;17.182;-96.766;2023-04-03T03:47:17;4.43;;;2.60;;
44272;SDS011;29964;17.182;-96.766;2023-04-03T03:49:44;5.67;;;2.37;;
44272;SDS011;29964;17.182;-96.766;2023-04-03T03:52:10;2.53;;;1.70;;
44272;SDS011;29964;17.182;-96.766;2023-04-03T03:54:37;1.60;;;1.43;;
44272;SDS011;29964;17.182;-96.766;2023-04-03T03:57:04;13.73;;;1.93;;
44272;SDS011;29964;17.182;-96.766;2023-04-03T03:59:31;3.03;;;1.90;;
44272;SDS011;29964;17.182;-96.766;2023-04-03T04:01:58;2.43;;;1.77;;
44272;SDS011;29964;17.182;-96.766;2023-04-03T04:04:25;2.67;;;1.60;;
44272;SDS011;29964;17.182;-96.766;2023-04-03T04:06:52;2.30;;;1.63;;
44272;SDS011;29964;17.182;-96.766;2023-04-03T04:09:19;2.43;;;1.77;;
44272;SDS011;29964;17.182;-96.766;2023-04-03T04:11:45;15.87;;;2.03;;
44272;SDS011;29964;17.182;-96.766;2023-04-03T04:14:12;10.40;;;3.03;;
44272;SDS011;29964;17.182;-96.766;2023-04-03T04:16:39;4.33;;;2.33;;
44272;SDS011;29964;17.182;-96.766;2023-04-03T04:19:06;2.67;;;1.97;;
44272;SDS011;29964;17.182;-96.766;2023-04-03T04:21:32;3.57;;;2.37;;
44272;SDS011;29964;17.182;-96.766;2023-04-03T04:23:59;4.60;;;2.70;;
44272;SDS011;29964;17.182;-96.766;2023-04-03T04:26:26;2.10;;;1.60;;
44272;SDS011;29964;17.182;-96.766;2023-04-03T04:28:53;5.97;;;2.70;;
44272;SDS011;29964;17.182;-96.766;2023-04-03T04:31:20;5.27;;;2.80;;
44272;SDS011;29964;17.182;-96.766;2023-04-03T04:33:47;7.17;;;2.90;;
44272;SDS011;29964;17.182;-96.766;2023-04-03T04:36:14;4.87;;;2.63;;
44272;SDS011;29964;17.182;-96.766;2023-04-03T04:38:41;2.97;;;1.87;;
44272;SDS011;29964;17.182;-96.766;2023-04-03T04:41:07;5.43;;;2.57;;
44272;SDS011;29964;17.182;-96.766;2023-04-03T04:43:34;3.90;;;2.50;;
44272;SDS011;29964;17.182;-96.766;2023-04-03T04:48:28;3.07;;;2.30;;
44272;SDS011;29964;17.182;-96.766;2023-04-03T04:50:55;2.77;;;1.77;;
44272;SDS011;29964;17.182;-96.766;2023-04-03T04:53:21;3.77;;;2.37;;
44272;SDS011;29964;17.182;-96.766;2023-04-03T04:55:48;2.10;;;1.03;;
44272;SDS011;29964;17.182;-96.766;2023-04-03T04:58:15;4.07;;;2.13;;
44272;SDS011;29964;17.182;-96.766;2023-04-03T05:00:42;6.40;;;3.37;;
44272;SDS011;29964;17.182;-96.766;2023-04-03T05:03:08;6.30;;;3.10;;
44272;SDS011;29964;17.182;-96.766;2023-04-03T05:05:35;4.40;;;2.23;;
44272;SDS011;29964;17.182;-96.766;2023-04-03T05:08:02;2.70;;;1.60;;
44272;SDS011;29964;17.182;-96.766;2023-04-03T05:10:29;4.13;;;1.90;;
44272;SDS011;29964;17.182;-96.766;2023-04-03T05:12:57;2.83;;;2.30;;
44272;SDS011;29964;17.182;-96.766;2023-04-03T05:15:23;3.43;;;1.93;;
44272;SDS011;29964;17.182;-96.766;2023-04-03T05:17:50;7.50;;;2.27;;
44272;SDS011;29964;17.182;-96.766;2023-04-03T05:20:17;8.07;;;2.70;;
44272;SDS011;29964;17.182;-96.766;2023-04-03T05:22:44;4.57;;;1.97;;
44272;SDS011;29964;17.182;-96.766;2023-04-03T05:25:11;4.13;;;2.20;;
44272;SDS011;29964;17.182;-96.766;2023-04-03T05:27:37;13.23;;;3.23;;
44272;SDS011;29964;17.182;-96.766;2023-04-03T05:30:04;6.80;;;2.50;;
44272;SDS011;29964;17.182;-96.766;2023-04-03T05:32:31;3.97;;;2.27;;
44272;SDS011;29964;17.182;-96.766;2023-04-03T05:34:59;4.70;;;3.47;;
44272;SDS011;29964;17.182;-96.766;2023-04-03T05:37:25;4.00;;;3.03;;
44272;SDS011;29964;17.182;-96.766;2023-04-03T05:39:52;4.13;;;2.20;;
44272;SDS011;29964;17.182;-96.766;2023-04-03T05:42:19;5.07;;;2.87;;
44272;SDS011;29964;17.182;-96.766;2023-04-03T05:44:45;8.83;;;3.47;;
44272;SDS011;29964;17.182;-96.766;2023-04-03T05:47:12;3.27;;;2.33;;
44272;SDS011;29964;17.182;-96.766;2023-04-03T05:49:39;6.43;;;3.53;;
44272;SDS011;29964;17.182;-96.766;2023-04-03T05:52:11;3.23;;;2.37;;
44272;SDS011;29964;17.182;-96.766;2023-04-03T05:54:43;2.80;;;2.13;;
44272;SDS011;29964;17.182;-96.766;2023-04-03T05:57:14;5.37;;;2.30;;
44272;SDS011;29964;17.182;-96.766;2023-04-03T05:59:42;6.33;;;2.87;;
44272;SDS011;29964;17.182;-96.766;2023-04-03T06:02:10;4.67;;;2.87;;
44272;SDS011;29964;17.182;-96.766;2023-04-03T06:04:37;10.67;;;3.07;;
44272;SDS011;29964;17.182;-96.766;2023-04-03T06:07:04;5.33;;;2.70;;
44272;SDS011;29964;17.182;-96.766;2023-04-03T06:09:30;2.93;;;2.30;;
44272;SDS011;29964;17.182;-96.766;2023-04-03T06:11:57;3.93;;;2.17;;
44272;SDS011;29964;17.182;-96.766;2023-04-03T06:14:24;4.20;;;2.87;;
44272;SDS011;29964;17.182;-96.766;2023-04-03T06:16:52;3.63;;;2.97;;
44272;SDS011;29964;17.182;-96.766;2023-04-03T06:19:19;9.87;;;3.23;;
44272;SDS011;29964;17.182;-96.766;2023-04-03T06:21:46;2.47;;;1.90;;
44272;SDS011;29964;17.182;-96.766;2023-04-03T06:24:15;3.70;;;2.20;;
44272;SDS011;29964;17.182;-96.766;2023-04-03T06:26:43;2.23;;;1.73;;
44272;SDS011;29964;17.182;-96.766;2023-04-03T06:29:10;4.50;;;1.93;;
44272;SDS011;29964;17.182;-96.766;2023-04-03T06:31:37;3.50;;;2.37;;
44272;SDS011;29964;17.182;-96.766;2023-04-03T06:34:05;3.83;;;2.97;;
44272;SDS011;29964;17.182;-96.766;2023-04-03T06:36:34;3.33;;;2.50;;
44272;SDS011;29964;17.182;-96.766;2023-04-03T06:39:01;4.63;;;2.13;;
44272;SDS011;29964;17.182;-96.766;2023-04-03T06:41:28;2.77;;;1.97;;
44272;SDS011;29964;17.182;-96.766;2023-04-03T06:43:55;4.13;;;2.73;;
44272;SDS011;29964;17.182;-96.766;2023-04-03T06:46:23;2.63;;;1.93;;
44272;SDS011;29964;17.182;-96.766;2023-04-03T06:48:50;4.27;;;2.80;;
44272;SDS011;29964;17.182;-96.766;2023-04-03T06:51:23;5.67;;;3.53;;
44272;SDS011;29964;17.182;-96.766;2023-04-03T06:53:51;3.63;;;2.17;;
44272;SDS011;29964;17.182;-96.766;2023-04-03T06:56:18;3.87;;;2.57;;
44272;SDS011;29964;17.182;-96.766;2023-04-03T06:58:45;5.03;;;2.83;;
44272;SDS011;29964;17.182;-96.766;2023-04-03T07:01:13;4.30;;;3.20;;
44272;SDS011;29964;17.182;-96.766;2023-04-03T07:03:40;7.87;;;2.33;;
44272;SDS011;29964;17.182;-96.766;2023-04-03T07:06:09;4.70;;;3.23;;
44272;SDS011;29964;17.182;-96.766;2023-04-03T07:08:37;13.40;;;2.53;;
44272;SDS011;29964;17.182;-96.766;2023-04-03T07:11:04;5.03;;;3.10;;
44272;SDS011;29964;17.182;-96.766;2023-04-03T07:13:31;4.30;;;2.83;;
44272;SDS011;29964;17.182;-96.766;2023-04-03T07:15:58;5.00;;;3.70;;
44272;SDS011;29964;17.182;-96.766;2023-04-03T07:18:25;5.70;;;3.57;;
44272;SDS011;29964;17.182;-96.766;2023-04-03T07:20:52;5.60;;;3.10;;
44272;SDS011;29964;17.182;-96.766;2023-04-03T07:23:19;5.20;;;3.17;;
44272;SDS011;29964;17.182;-96.766;2023-04-03T07:25:46;2.87;;;2.00;;
44272;SDS011;29964;17.182;-96.766;2023-04-03T07:28:13;5.53;;;3.63;;
44272;SDS011;29964;17.182;-96.766;2023-04-03T07:30:47;3.70;;;2.63;;
44272;SDS011;29964;17.182;-96.766;2023-04-03T07:33:15;8.98;;;3.17;;
44272;SDS011;29964;17.182;-96.766;2023-04-03T07:35:42;4.20;;;2.87;;
44272;SDS011;29964;17.182;-96.766;2023-04-03T07:38:09;3.60;;;2.33;;
44272;SDS011;29964;17.182;-96.766;2023-04-03T07:40:36;9.77;;;2.43;;
44272;SDS011;29964;17.182;-96.766;2023-04-03T07:43:03;3.67;;;2.40;;
44272;SDS011;29964;17.182;-96.766;2023-04-03T07:45:31;3.93;;;2.67;;
44272;SDS011;29964;17.182;-96.766;2023-04-03T07:47:58;4.40;;;2.83;;
44272;SDS011;29964;17.182;-96.766;2023-04-03T07:50:25;5.97;;;2.87;;
44272;SDS011;29964;17.182;-96.766;2023-04-03T07:52:52;14.43;;;3.73;;
44272;SDS011;29964;17.182;-96.766;2023-04-03T07:55:21;8.33;;;4.00;;
44272;SDS011;29964;17.182;-96.766;2023-04-03T07:57:48;7.13;;;3.50;;
44272;SDS011;29964;17.182;-96.766;2023-04-03T08:00:15;4.10;;;3.10;;
44272;SDS011;29964;17.182;-96.766;2023-04-03T08:02:43;4.83;;;2.60;;
44272;SDS011;29964;17.182;-96.766;2023-04-03T08:05:16;3.23;;;2.30;;
44272;SDS011;29964;17.182;-96.766;2023-04-03T08:07:43;4.90;;;3.23;;
44272;SDS011;29964;17.182;-96.766;2023-04-03T08:10:10;3.93;;;2.63;;
44272;SDS011;29964;17.182;-96.766;2023-04-03T08:12:37;5.57;;;3.13;;
44272;SDS011;29964;17.182;-96.766;2023-04-03T08:15:04;12.73;;;3.87;;
44272;SDS011;29964;17.182;-96.766;2023-04-03T08:17:31;6.03;;;3.20;;
44272;SDS011;29964;17.182;-96.766;2023-04-03T08:19:58;5.57;;;3.40;;
44272;SDS011;29964;17.182;-96.766;2023-04-03T08:22:25;5.50;;;3.60;;
44272;SDS011;29964;17.182;-96.766;2023-04-03T08:24:51;3.67;;;2.30;;
44272;SDS011;29964;17.182;-96.766;2023-04-03T08:27:18;11.37;;;3.80;;
44272;SDS011;29964;17.182;-96.766;2023-04-03T08:29:45;4.83;;;2.87;;
44272;SDS011;29964;17.182;-96.766;2023-04-03T08:32:12;8.27;;;4.13;;
44272;SDS011;29964;17.182;-96.766;2023-04-03T08:34:38;4.70;;;2.33;;
44272;SDS011;29964;17.182;-96.766;2023-04-03T08:37:05;7.50;;;3.10;;
44272;SDS011;29964;17.182;-96.766;2023-04-03T08:39:32;3.70;;;2.60;;
44272;SDS011;29964;17.182;-96.766;2023-04-03T08:42:03;3.53;;;2.40;;
44272;SDS011;29964;17.182;-96.766;2023-04-03T08:44:39;2.90;;;2.27;;
44272;SDS011;29964;17.182;-96.766;2023-04-03T08:49:42;3.03;;;1.87;;
44272;SDS011;29964;17.182;-96.766;2023-04-03T08:52:14;9.00;;;2.83;;
44272;SDS011;29964;17.182;-96.766;2023-04-03T08:57:09;4.23;;;2.93;;
44272;SDS011;29964;17.182;-96.766;2023-04-03T08:59:36;2.77;;;2.37;;
44272;SDS011;29964;17.182;-96.766;2023-04-03T09:02:12;5.10;;;3.40;;
44272;SDS011;29964;17.182;-96.766;2023-04-03T09:04:44;4.73;;;2.50;;
44272;SDS011;29964;17.182;-96.766;2023-04-03T09:07:15;3.13;;;2.30;;
44272;SDS011;29964;17.182;-96.766;2023-04-03T09:09:45;5.40;;;3.13;;
44272;SDS011;29964;17.182;-96.766;2023-04-03T09:12:17;3.20;;;2.27;;
44272;SDS011;29964;17.182;-96.766;2023-04-03T09:17:16;2.90;;;2.27;;
44272;SDS011;29964;17.182;-96.766;2023-04-03T09:22:25;3.33;;;2.43;;
44272;SDS011;29964;17.182;-96.766;2023-04-03T09:24:55;4.20;;;3.17;;
44272;SDS011;29964;17.182;-96.766;2023-04-03T09:27:23;4.30;;;3.53;;
44272;SDS011;29964;17.182;-96.766;2023-04-03T09:29:52;6.13;;;3.07;;
44272;SDS011;29964;17.182;-96.766;2023-04-03T09:34:53;6.30;;;2.97;;
44272;SDS011;29964;17.182;-96.766;2023-04-03T09:37:42;4.47;;;2.57;;
44272;SDS011;29964;17.182;-96.766;2023-04-03T09:43:02;7.07;;;3.70;;
44272;SDS011;29964;17.182;-96.766;2023-04-03T09:45:30;8.73;;;3.33;;
44272;SDS011;29964;17.182;-96.766;2023-04-03T09:48:15;8.67;;;3.90;;
44272;SDS011;29964;17.182;-96.766;2023-04-03T09:50:56;5.73;;;3.00;;
44272;SDS011;29964;17.182;-96.766;2023-04-03T09:53:31;3.17;;;2.37;;
44272;SDS011;29964;17.182;-96.766;2023-04-03T09:55:59;3.17;;;2.30;;
44272;SDS011;29964;17.182;-96.766;2023-04-03T09:58:29;3.77;;;3.07;;
44272;SDS011;29964;17.182;-96.766;2023-04-03T10:00:59;3.93;;;2.10;;
44272;SDS011;29964;17.182;-96.766;2023-04-03T10:03:30;4.20;;;2.87;;
44272;SDS011;29964;17.182;-96.766;2023-04-03T10:05:58;5.17;;;2.90;;
44272;SDS011;29964;17.182;-96.766;2023-04-03T10:08:27;5.23;;;2.17;;
44272;SDS011;29964;17.182;-96.766;2023-04-03T10:11:10;3.93;;;2.30;;
44272;SDS011;29964;17.182;-96.766;2023-04-03T10:13:49;9.23;;;3.57;;
44272;SDS011;29964;17.182;-96.766;2023-04-03T10:16:17;6.07;;;2.97;;
44272;SDS011;29964;17.182;-96.766;2023-04-03T10:18:45;8.13;;;2.73;;
44272;SDS011;29964;17.182;-96.766;2023-04-03T10:23:44;2.60;;;1.87;;
44272;SDS011;29964;17.182;-96.766;2023-04-03T10:28:42;3.03;;;1.77;;
44272;SDS011;29964;17.182;-96.766;2023-04-03T10:31:13;5.47;;;2.57;;
44272;SDS011;29964;17.182;-96.766;2023-04-03T10:41:54;2.80;;;2.03;;
44272;SDS011;29964;17.182;-96.766;2023-04-03T10:57:47;4.30;;;2.93;;
44272;SDS011;29964;17.182;-96.766;2023-04-03T11:00:17;7.80;;;4.17;;
44272;SDS011;29964;17.182;-96.766;2023-04-03T11:06:06;7.90;;;3.07;;
44272;SDS011;29964;17.182;-96.766;2023-04-03T11:08:13;5.07;;;3.13;;
44272;SDS011;29964;17.182;-96.766;2023-04-03T11:10:50;3.60;;;2.90;;
44272;SDS011;29964;17.182;-96.766;2023-04-03T11:13:19;5.00;;;3.03;;
44272;SDS011;29964;17.182;-96.766;2023-04-03T11:15:48;4.07;;;2.47;;
44272;SDS011;29964;17.182;-96.766;2023-04-03T11:18:17;5.13;;;2.77;;
44272;SDS011;29964;17.182;-96.766;2023-04-03T11:21:04;4.60;;;3.10;;
44272;SDS011;29964;17.182;-96.766;2023-04-03T11:23:36;5.57;;;3.03;;
44272;SDS011;29964;17.182;-96.766;2023-04-03T11:26:07;15.57;;;3.10;;
44272;SDS011;29964;17.182;-96.766;2023-04-03T11:28:35;5.13;;;3.37;;
44272;SDS011;29964;17.182;-96.766;2023-04-03T11:31:24;5.70;;;3.10;;
44272;SDS011;29964;17.182;-96.766;2023-04-03T11:34:08;3.27;;;2.67;;
44272;SDS011;29964;17.182;-96.766;2023-04-03T11:36:41;6.97;;;3.07;;
44272;SDS011;29964;17.182;-96.766;2023-04-03T11:41:54;4.97;;;2.92;;
44272;SDS011;29964;17.182;-96.766;2023-04-03T11:46:58;4.73;;;2.53;;
44272;SDS011;29964;17.182;-96.766;2023-04-03T11:52:10;4.32;;;2.90;;
44272;SDS011;29964;17.182;-96.766;2023-04-03T11:59:51;7.63;;;2.38;;
44272;SDS011;29964;17.182;-96.766;2023-04-03T12:02:35;5.00;;;3.20;;
44272;SDS011;29964;17.182;-96.766;2023-04-03T12:08:15;5.00;;;3.05;;
44272;SDS011;29964;17.182;-96.766;2023-04-03T12:10:33;6.60;;;3.40;;
44272;SDS011;29964;17.182;-96.766;2023-04-03T12:13:00;7.43;;;3.63;;
44272;SDS011;29964;17.182;-96.766;2023-04-03T12:15:44;4.73;;;2.97;;
44272;SDS011;29964;17.182;-96.766;2023-04-03T12:20:58;5.20;;;3.60;;
44272;SDS011;29964;17.182;-96.766;2023-04-03T12:23:29;11.30;;;5.20;;
44272;SDS011;29964;17.182;-96.766;2023-04-03T12:26:02;23.20;;;4.40;;
44272;SDS011;29964;17.182;-96.766;2023-04-03T12:28:35;6.70;;;4.07;;
44272;SDS011;29964;17.182;-96.766;2023-04-03T12:31:03;10.53;;;4.83;;
44272;SDS011;29964;17.182;-96.766;2023-04-03T12:33:37;13.80;;;4.53;;
44272;SDS011;29964;17.182;-96.766;2023-04-03T12:36:13;6.50;;;3.87;;
44272;SDS011;29964;17.182;-96.766;2023-04-03T12:38:49;9.83;;;4.80;;
44272;SDS011;29964;17.182;-96.766;2023-04-03T12:46:24;6.53;;;3.93;;
44272;SDS011;29964;17.182;-96.766;2023-04-03T12:48:57;7.33;;;4.20;;
44272;SDS011;29964;17.182;-96.766;2023-04-03T12:51:45;5.07;;;3.37;;
44272;SDS011;29964;17.182;-96.766;2023-04-03T12:54:15;7.67;;;3.20;;
44272;SDS011;29964;17.182;-96.766;2023-04-03T12:56:42;6.43;;;3.63;;
44272;SDS011;29964;17.182;-96.766;2023-04-03T12:59:15;6.43;;;3.33;;
44272;SDS011;29964;17.182;-96.766;2023-04-03T13:01:43;3.97;;;2.90;;
44272;SDS011;29964;17.182;-96.766;2023-04-03T13:04:10;8.43;;;4.03;;
44272;SDS011;29964;17.182;-96.766;2023-04-03T13:06:41;13.60;;;4.80;;
44272;SDS011;29964;17.182;-96.766;2023-04-03T13:09:19;7.30;;;4.40;;
44272;SDS011;29964;17.182;-96.766;2023-04-03T13:11:50;13.13;;;4.93;;
44272;SDS011;29964;17.182;-96.766;2023-04-03T13:14:19;7.50;;;3.40;;
44272;SDS011;29964;17.182;-96.766;2023-04-03T13:16:59;9.30;;;5.10;;
44272;SDS011;29964;17.182;-96.766;2023-04-03T13:19:30;15.27;;;3.80;;
44272;SDS011;29964;17.182;-96.766;2023-04-03T13:21:58;10.50;;;4.50;;
44272;SDS011;29964;17.182;-96.766;2023-04-03T13:24:26;11.53;;;3.63;;
44272;SDS011;29964;17.182;-96.766;2023-04-03T13:26:55;8.23;;;4.57;;
44272;SDS011;29964;17.182;-96.766;2023-04-03T13:29:29;7.63;;;4.03;;
44272;SDS011;29964;17.182;-96.766;2023-04-03T13:31:56;5.30;;;3.83;;
44272;SDS011;29964;17.182;-96.766;2023-04-03T13:34:24;7.07;;;3.27;;
44272;SDS011;29964;17.182;-96.766;2023-04-03T13:41:50;8.23;;;3.93;;
44272;SDS011;29964;17.182;-96.766;2023-04-03T13:44:28;5.73;;;3.57;;
44272;SDS011;29964;17.182;-96.766;2023-04-03T13:46:56;7.43;;;3.03;;
44272;SDS011;29964;17.182;-96.766;2023-04-03T13:51:59;7.53;;;4.03;;
44272;SDS011;29964;17.182;-96.766;2023-04-03T13:54:31;6.47;;;2.37;;
44272;SDS011;29964;17.182;-96.766;2023-04-03T13:56:59;7.43;;;3.53;;
44272;SDS011;29964;17.182;-96.766;2023-04-03T13:59:33;3.53;;;2.70;;
44272;SDS011;29964;17.182;-96.766;2023-04-03T14:04:32;24.03;;;4.43;;
44272;SDS011;29964;17.182;-96.766;2023-04-03T14:06:59;4.10;;;2.83;;
44272;SDS011;29964;17.182;-96.766;2023-04-03T14:09:27;5.47;;;3.47;;
44272;SDS011;29964;17.182;-96.766;2023-04-03T14:11:55;5.20;;;3.40;;
44272;SDS011;29964;17.182;-96.766;2023-04-03T14:14:24;5.90;;;3.47;;
44272;SDS011;29964;17.182;-96.766;2023-04-03T14:16:56;6.87;;;3.73;;
44272;SDS011;29964;17.182;-96.766;2023-04-03T14:19:32;8.70;;;4.60;;
44272;SDS011;29964;17.182;-96.766;2023-04-03T14:21:59;5.55;;;3.45;;
44272;SDS011;29964;17.182;-96.766;2023-04-03T14:24:27;12.50;;;4.07;;
44272;SDS011;29964;17.182;-96.766;2023-04-03T14:26:54;17.07;;;3.83;;
44272;SDS011;29964;17.182;-96.766;2023-04-03T14:29:21;6.93;;;2.40;;
44272;SDS011;29964;17.182;-96.766;2023-04-03T14:31:48;5.10;;;3.23;;
44272;SDS011;29964;17.182;-96.766;2023-04-03T14:34:15;5.13;;;2.73;;
44272;SDS011;29964;17.182;-96.766;2023-04-03T14:36:43;4.60;;;3.43;;
44272;SDS011;29964;17.182;-96.766;2023-04-03T14:39:17;3.80;;;3.10;;
44272;SDS011;29964;17.182;-96.766;2023-04-03T14:41:44;7.57;;;3.70;;
44272;SDS011;29964;17.182;-96.766;2023-04-03T14:44:11;7.10;;;3.93;;
44272;SDS011;29964;17.182;-96.766;2023-04-03T14:46:39;5.00;;;3.00;;
44272;SDS011;29964;17.182;-96.766;2023-04-03T14:49:11;4.50;;;2.57;;
44272;SDS011;29964;17.182;-96.766;2023-04-03T14:51:39;4.57;;;3.20;;
44272;SDS011;29964;17.182;-96.766;2023-04-03T14:54:10;4.77;;;3.20;;
44272;SDS011;29964;17.182;-96.766;2023-04-03T14:56:37;4.83;;;3.43;;
44272;SDS011;29964;17.182;-96.766;2023-04-03T14:59:04;5.30;;;3.77;;
44272;SDS011;29964;17.182;-96.766;2023-04-03T15:01:35;4.17;;;2.73;;
44272;SDS011;29964;17.182;-96.766;2023-04-03T15:04:01;6.27;;;4.40;;
44272;SDS011;29964;17.182;-96.766;2023-04-03T15:06:28;18.67;;;4.33;;
44272;SDS011;29964;17.182;-96.766;2023-04-03T15:08:55;4.80;;;3.60;;
44272;SDS011;29964;17.182;-96.766;2023-04-03T15:11:21;7.60;;;4.27;;
44272;SDS011;29964;17.182;-96.766;2023-04-03T15:13:48;13.77;;;6.87;;
44272;SDS011;29964;17.182;-96.766;2023-04-03T15:16:16;7.93;;;6.10;;
44272;SDS011;29964;17.182;-96.766;2023-04-03T15:18:43;10.27;;;6.23;;
44272;SDS011;29964;17.182;-96.766;2023-04-03T15:21:10;11.90;;;6.77;;
44272;SDS011;29964;17.182;-96.766;2023-04-03T15:23:37;20.97;;;11.60;;
44272;SDS011;29964;17.182;-96.766;2023-04-03T15:26:03;18.13;;;13.17;;
44272;SDS011;29964;17.182;-96.766;2023-04-03T15:30:57;17.37;;;12.67;;
44272;SDS011;29964;17.182;-96.766;2023-04-03T15:33:25;20.20;;;12.73;;
44272;SDS011;29964;17.182;-96.766;2023-04-03T15:35:52;20.03;;;13.30;;
44272;SDS011;29964;17.182;-96.766;2023-04-03T15:38:18;29.20;;;11.40;;
44272;SDS011;29964;17.182;-96.766;2023-04-03T15:40:45;18.83;;;9.70;;
44272;SDS011;29964;17.182;-96.766;2023-04-03T15:43:15;13.83;;;9.80;;
44272;SDS011;29964;17.182;-96.766;2023-04-03T15:45:42;14.53;;;10.20;;
44272;SDS011;29964;17.182;-96.766;2023-04-03T15:48:10;14.33;;;10.03;;
44272;SDS011;29964;17.182;-96.766;2023-04-03T15:50:38;29.13;;;9.77;;
44272;SDS011;29964;17.182;-96.766;2023-04-03T15:53:05;16.40;;;8.90;;
44272;SDS011;29964;17.182;-96.766;2023-04-03T15:55:32;16.03;;;9.10;;